Time;durP1;ratioP1;P1;durP2;ratioP2;P2;SDS_P1;SDS_P2;PMS_P1;PMS_P2;Temp;Humidity;BMP_temperature;BMP_pressure;BME280_temperature;BME280_humidity;BME280_pressure;Samples;Min_cycle;Max_cycle;Signal;HPM_P1;HPM_P2
2024/01/18 04:02:01;;;;;;;5.35;1.25;;;-1.90;99.90;;;;;;6225177;22;20048;-78
2024/01/18 04:04:26;;;;;;;6.90;1.15;;;-1.90;99.90;;;;;;6219797;23;20012;-76
2024/01/18 04:06:52;;;;;;;4.93;1.00;;;-1.90;99.90;;;;;;6248155;23;20438;-77
2024/01/18 04:09:18;;;;;;;2.70;0.98;;;-1.90;99.90;;;;;;6249507;23;20008;-76
2024/01/18 04:11:44;;;;;;;4.78;1.40;;;-1.90;99.90;;;;;;6221373;23;20408;-77
2024/01/18 04:14:10;;;;;;;5.82;1.20;;;-1.80;99.90;;;;;;6196600;23;20023;-79
2024/01/18 04:16:35;;;;;;;3.75;1.08;;;-1.80;99.90;;;;;;6248711;23;20012;-78
2024/01/18 04:19:01;;;;;;;5.97;0.90;;;-1.70;99.90;;;;;;6221166;23;20020;-77
2024/01/18 04:21:27;;;;;;;6.78;1.30;;;-1.70;99.90;;;;;;6221157;23;20013;-76
2024/01/18 04:23:53;;;;;;;12.05;2.10;;;-1.60;99.90;;;;;;6221389;23;20441;-78
2024/01/18 04:26:19;;;;;;;5.97;1.15;;;-1.50;99.90;;;;;;6195882;23;20087;-76
2024/01/18 04:28:44;;;;;;;9.48;1.00;;;-1.40;99.90;;;;;;6247799;23;20070;-77
2024/01/18 04:31:10;;;;;;;9.63;1.10;;;-1.40;99.90;;;;;;6247730;22;20434;-78
2024/01/18 04:33:36;;;;;;;6.22;1.17;;;-1.40;99.90;;;;;;6248213;23;20005;-79
2024/01/18 04:36:02;;;;;;;4.97;1.25;;;-1.40;99.90;;;;;;6247991;23;20441;-78
2024/01/18 04:38:28;;;;;;;8.18;1.10;;;-1.40;99.90;;;;;;6248279;23;20039;-75
2024/01/18 04:40:53;;;;;;;10.38;1.60;;;-1.40;99.90;;;;;;6248249;22;20039;-75
2024/01/18 04:43:19;;;;;;;3.20;1.00;;;-1.50;99.90;;;;;;6247917;23;20012;-78
2024/01/18 04:45:45;;;;;;;3.97;0.93;;;-1.50;99.90;;;;;;6248075;23;20077;-77
2024/01/18 04:48:10;;;;;;;3.88;1.00;;;-1.50;99.90;;;;;;6221439;23;20319;-76
2024/01/18 04:50:36;;;;;;;3.92;0.90;;;-1.50;99.90;;;;;;6220657;23;20043;-78
2024/01/18 04:53:02;;;;;;;2.20;0.82;;;-1.50;99.90;;;;;;6248163;23;20449;-75
2024/01/18 04:55:27;;;;;;;3.08;1.10;;;-1.50;99.90;;;;;;6220945;23;20015;-77
2024/01/18 04:57:53;;;;;;;6.20;1.42;;;-1.60;99.90;;;;;;6220889;23;20070;-78
2024/01/18 05:00:19;;;;;;;2.85;0.95;;;-1.60;99.90;;;;;;6247709;22;20019;-75
2024/01/18 05:02:45;;;;;;;5.07;1.15;;;-1.70;99.90;;;;;;6248416;23;20016;-75
2024/01/18 05:05:11;;;;;;;4.47;1.13;;;-1.70;99.90;;;;;;6248153;23;20012;-77
2024/01/18 05:07:38;;;;;;;6.65;1.60;;;-1.70;99.90;;;;;;6221008;23;20075;-78
2024/01/18 05:10:04;;;;;;;3.03;1.10;;;-1.70;99.90;;;;;;6220872;23;20019;-78
2024/01/18 05:12:31;;;;;;;3.03;0.73;;;-1.80;99.90;;;;;;6220453;23;20047;-79
2024/01/18 05:14:56;;;;;;;4.68;1.10;;;-1.80;99.90;;;;;;6247496;23;20066;-76
2024/01/18 05:17:22;;;;;;;8.30;1.35;;;-1.90;99.90;;;;;;6220167;23;20020;-77
2024/01/18 05:19:48;;;;;;;5.85;1.58;;;-1.90;99.90;;;;;;6220540;23;20019;-76
2024/01/18 05:22:14;;;;;;;12.85;4.38;;;-1.90;99.90;;;;;;6247353;22;20016;-78
2024/01/18 05:24:40;;;;;;;165.07;69.60;;;-1.90;99.90;;;;;;6247986;23;20016;-77
2024/01/18 05:27:07;;;;;;;28.77;13.35;;;-1.90;99.90;;;;;;6220865;23;20012;-78
2024/01/18 05:29:33;;;;;;;36.17;15.23;;;-1.90;99.90;;;;;;6220535;23;20456;-78
2024/01/18 05:31:58;;;;;;;36.85;15.52;;;-1.90;99.90;;;;;;6220498;23;20020;-77
2024/01/18 05:34:24;;;;;;;14.60;5.07;;;-2.00;99.90;;;;;;6220620;23;20042;-78
2024/01/18 05:36:50;;;;;;;6.78;2.13;;;-2.00;99.90;;;;;;6220439;23;20025;-79
2024/01/18 05:39:15;;;;;;;14.85;5.20;;;-2.00;99.90;;;;;;6247594;23;20043;-77
2024/01/18 05:41:41;;;;;;;17.88;4.90;;;-2.00;99.90;;;;;;6247192;22;20482;-77
2024/01/18 05:44:06;;;;;;;9.95;4.38;;;-2.00;99.90;;;;;;6220466;23;20035;-77
2024/01/18 05:46:32;;;;;;;4.45;2.40;;;-2.10;99.90;;;;;;6220376;23;20304;-79
2024/01/18 05:48:58;;;;;;;11.43;4.20;;;-2.10;99.90;;;;;;6220295;23;20012;-76
2024/01/18 05:51:23;;;;;;;7.50;2.50;;;-2.10;99.90;;;;;;6247359;22;20088;-79
2024/01/18 05:53:49;;;;;;;3.60;1.40;;;-2.10;99.90;;;;;;6220502;23;20085;-78
2024/01/18 05:56:15;;;;;;;4.75;1.60;;;-2.10;99.90;;;;;;6247620;23;20023;-78
2024/01/18 05:58:40;;;;;;;4.28;1.70;;;-2.20;99.90;;;;;;6220331;23;20016;-78
2024/01/18 06:01:06;;;;;;;9.52;1.55;;;-2.20;99.90;;;;;;6236502;22;20020;-74
2024/01/18 06:03:32;;;;;;;11.15;1.90;;;-2.10;99.90;;;;;;6281425;22;20012;-74
2024/01/18 06:06:00;;;;;;;10.85;5.78;;;-2.10;99.90;;;;;;6288811;22;20086;-74
2024/01/18 06:08:26;;;;;;;6.88;1.85;;;-2.10;99.90;;;;;;6262140;22;20011;-80
2024/01/18 06:10:53;;;;;;;12.45;5.10;;;-2.10;99.90;;;;;;6276074;22;20019;-76
2024/01/18 06:13:20;;;;;;;28.30;12.55;;;-2.10;99.90;;;;;;6275967;22;20343;-75
2024/01/18 06:15:45;;;;;;;14.95;3.42;;;-2.00;99.90;;;;;;6277568;22;20062;-79
2024/01/18 06:18:11;;;;;;;5.20;2.30;;;-2.00;99.90;;;;;;6249946;22;20015;-77
2024/01/18 06:20:36;;;;;;;6.18;1.50;;;-2.00;99.90;;;;;;6275538;22;20022;-75
2024/01/18 06:23:02;;;;;;;9.05;1.67;;;-2.00;99.90;;;;;;6277090;22;20012;-76
2024/01/18 06:25:28;;;;;;;9.10;3.25;;;-1.90;99.90;;;;;;6277467;22;20014;-80
2024/01/18 06:27:53;;;;;;;5.20;2.30;;;-1.90;99.90;;;;;;6275148;22;20047;-79
2024/01/18 06:30:19;;;;;;;17.70;8.07;;;-1.80;99.90;;;;;;6277008;22;20004;-77
2024/01/18 06:32:45;;;;;;;6.55;2.65;;;-1.80;99.90;;;;;;6249864;22;20081;-77
2024/01/18 06:35:11;;;;;;;10.75;3.15;;;-1.80;99.90;;;;;;6275366;22;20011;-77
2024/01/18 06:37:38;;;;;;;7.80;2.42;;;-1.70;99.90;;;;;;6277475;22;20012;-78
2024/01/18 06:40:04;;;;;;;4.18;1.65;;;-1.80;99.90;;;;;;6276209;22;20012;-75
2024/01/18 06:42:31;;;;;;;6.30;1.85;;;-1.70;99.90;;;;;;6275490;22;20024;-76
2024/01/18 06:44:57;;;;;;;5.40;1.48;;;-1.70;99.90;;;;;;6277339;22;20039;-79
2024/01/18 06:47:23;;;;;;;8.30;2.03;;;-1.70;99.90;;;;;;6277260;22;20007;-79
2024/01/18 06:49:48;;;;;;;5.50;1.83;;;-1.80;99.90;;;;;;6277267;22;20007;-77
2024/01/18 06:52:14;;;;;;;6.93;2.08;;;-1.80;99.90;;;;;;6277029;22;20020;-77
2024/01/18 06:54:43;;;;;;;8.10;1.58;;;-1.80;99.90;;;;;;6277445;22;20016;-78
2024/01/18 06:57:09;;;;;;;6.60;2.40;;;-1.80;99.90;;;;;;6274965;22;20449;-78
2024/01/18 06:59:35;;;;;;;8.63;2.08;;;-1.90;99.90;;;;;;6275487;22;20027;-76
2024/01/18 07:02:01;;;;;;;6.13;2.00;;;-1.90;99.90;;;;;;6274858;22;20016;-78
2024/01/18 07:04:26;;;;;;;7.47;2.03;;;-2.00;99.90;;;;;;6276741;22;20004;-79
2024/01/18 07:06:52;;;;;;;10.95;3.50;;;-2.00;99.90;;;;;;6277105;22;20008;-78
2024/01/18 07:09:18;;;;;;;6.38;2.95;;;-2.10;99.90;;;;;;6277174;22;20015;-77
2024/01/18 07:11:43;;;;;;;8.68;2.28;;;-2.10;99.90;;;;;;6275516;22;20064;-78
2024/01/18 07:14:09;;;;;;;5.32;1.73;;;-2.10;99.90;;;;;;6275041;22;20090;-75
2024/01/18 07:16:34;;;;;;;7.18;1.60;;;-2.20;99.90;;;;;;6276478;22;20043;-76
2024/01/18 07:19:00;;;;;;;7.80;2.80;;;-2.20;99.90;;;;;;6276937;22;20370;-76
2024/01/18 07:21:26;;;;;;;13.15;3.40;;;-2.20;99.90;;;;;;6275024;22;20015;-74
2024/01/18 07:23:51;;;;;;;10.32;5.28;;;-2.20;99.90;;;;;;6275140;22;20015;-76
2024/01/18 07:26:18;;;;;;;16.25;4.82;;;-2.20;99.90;;;;;;6276960;22;20008;-78
2024/01/18 07:28:44;;;;;;;28.23;10.05;;;-2.20;99.90;;;;;;6275286;22;20011;-77
2024/01/18 07:31:09;;;;;;;17.45;8.38;;;-2.20;99.90;;;;;;6276579;22;20014;-79
2024/01/18 07:33:37;;;;;;;17.77;6.53;;;-2.20;99.90;;;;;;6277309;22;20039;-79
2024/01/18 07:36:03;;;;;;;17.52;6.22;;;-2.20;99.90;;;;;;6276647;22;20004;-75
2024/01/18 07:38:28;;;;;;;25.85;9.02;;;-2.20;99.90;;;;;;6276475;22;20046;-77
2024/01/18 07:40:54;;;;;;;26.45;9.88;;;-2.20;99.90;;;;;;6276656;22;20036;-75
2024/01/18 07:43:20;;;;;;;22.88;8.85;;;-2.20;99.90;;;;;;6276424;22;20306;-76
2024/01/18 07:45:45;;;;;;;14.43;5.30;;;-2.20;99.90;;;;;;6276792;22;20012;-77
2024/01/18 07:48:11;;;;;;;11.05;3.88;;;-2.20;99.90;;;;;;6274637;22;20455;-76
2024/01/18 07:50:37;;;;;;;15.38;4.95;;;-2.20;99.90;;;;;;6275206;22;20459;-74
2024/01/18 07:53:03;;;;;;;9.50;3.20;;;-2.10;99.90;;;;;;6277067;22;20007;-77
2024/01/18 07:55:29;;;;;;;11.90;3.45;;;-2.10;99.90;;;;;;6273913;22;20015;-74
2024/01/18 07:57:55;;;;;;;7.00;2.92;;;-2.10;99.90;;;;;;6275806;22;20050;-78
2024/01/18 08:00:21;;;;;;;13.85;2.90;;;-2.10;99.90;;;;;;6274105;22;20016;-74
2024/01/18 08:02:46;;;;;;;8.13;3.40;;;-2.10;99.90;;;;;;6218970;23;20023;-78
2024/01/18 08:05:12;;;;;;;7.03;3.05;;;-2.10;99.90;;;;;;6244736;23;20004;-77
2024/01/18 08:07:42;;;;;;;12.63;3.80;;;-2.10;99.90;;;;;;6245066;23;20380;-78
2024/01/18 08:10:11;;;;;;;5.50;2.70;;;-2.00;99.90;;;;;;6246328;23;20012;-79
2024/01/18 08:12:37;;;;;;;6.72;2.88;;;-2.00;99.90;;;;;;6218872;23;20015;-79
2024/01/18 08:15:04;;;;;;;5.78;2.33;;;-2.00;99.90;;;;;;6219034;23;20042;-78
2024/01/18 08:17:30;;;;;;;6.78;2.60;;;-2.00;99.90;;;;;;6218933;23;20030;-80
2024/01/18 08:19:56;;;;;;;9.45;2.50;;;-1.90;99.90;;;;;;6219113;23;20044;-78
2024/01/18 08:22:21;;;;;;;6.32;2.08;;;-1.90;99.90;;;;;;6218698;23;20016;-77
2024/01/18 08:24:47;;;;;;;7.13;2.25;;;-1.80;99.90;;;;;;6218766;23;20019;-78
2024/01/18 08:27:13;;;;;;;5.70;2.05;;;-1.70;99.90;;;;;;6219359;23;20376;-86
2024/01/18 08:29:39;;;;;;;8.00;1.98;;;-1.60;99.90;;;;;;6219365;23;20052;-86
2024/01/18 08:32:06;;;;;;;6.30;2.75;;;-1.50;99.90;;;;;;6247077;22;20012;-80
2024/01/18 08:34:31;;;;;;;4.07;1.77;;;-1.50;99.90;;;;;;6246341;23;20018;-76
2024/01/18 08:36:57;;;;;;;9.52;2.20;;;-1.50;99.90;;;;;;6194283;23;20051;-80
2024/01/18 08:39:22;;;;;;;8.65;2.90;;;-1.50;99.90;;;;;;6245667;23;20016;-77
2024/01/18 08:41:48;;;;;;;9.15;3.35;;;-1.50;99.90;;;;;;6246335;22;20066;-78
2024/01/18 08:44:14;;;;;;;10.75;5.07;;;-1.50;99.90;;;;;;6218768;23;20016;-80
2024/01/18 08:46:39;;;;;;;16.35;6.38;;;-1.40;99.90;;;;;;6218871;23;20012;-79
2024/01/18 08:49:05;;;;;;;15.95;7.47;;;-1.30;99.90;;;;;;6218719;23;20441;-78
2024/01/18 08:51:31;;;;;;;10.18;4.72;;;-1.30;99.90;;;;;;6218937;23;20012;-79
2024/01/18 08:53:57;;;;;;;14.73;5.82;;;-1.00;99.90;;;;;;6247779;23;20016;-77
2024/01/18 08:56:23;;;;;;;13.75;3.70;;;-0.70;99.90;;;;;;6247789;23;20331;-78
2024/01/18 08:58:49;;;;;;;10.32;3.47;;;-0.40;99.90;;;;;;6247836;23;20078;-78
2024/01/18 09:01:15;;;;;;;8.88;4.28;;;0.00;99.90;;;;;;6247215;22;20016;-79
2024/01/18 09:03:40;;;;;;;8.60;3.10;;;0.60;99.90;;;;;;6220668;23;20014;-77
2024/01/18 09:06:06;;;;;;;8.95;3.33;;;1.30;99.90;;;;;;6247658;23;20012;-78
2024/01/18 09:08:34;;;;;;;6.15;3.00;;;1.80;99.90;;;;;;6247701;23;20012;-80
2024/01/18 09:11:00;;;;;;;7.35;2.70;;;2.30;99.90;;;;;;6220447;23;20019;-78
2024/01/18 09:13:26;;;;;;;6.57;2.40;;;2.70;99.90;;;;;;6220483;23;20012;-80
2024/01/18 09:15:51;;;;;;;8.20;2.50;;;2.90;99.90;;;;;;6220351;23;20342;-78
2024/01/18 09:18:17;;;;;;;9.40;2.95;;;2.80;99.90;;;;;;6247522;23;20016;-78
2024/01/18 09:20:45;;;;;;;8.45;3.47;;;2.40;99.90;;;;;;6247633;22;20005;-79
2024/01/18 09:23:12;;;;;;;8.25;3.20;;;2.00;99.90;;;;;;6220274;23;20019;-79
2024/01/18 09:25:38;;;;;;;10.63;3.08;;;1.60;99.90;;;;;;6248633;23;20414;-79
2024/01/18 09:28:07;;;;;;;6.25;2.90;;;1.40;99.90;;;;;;6220187;23;20322;-79
2024/01/18 09:30:34;;;;;;;7.65;2.58;;;1.10;99.90;;;;;;6247423;22;20065;-79
2024/01/18 09:33:01;;;;;;;6.57;2.22;;;1.00;99.90;;;;;;6220161;23;20016;-77
2024/01/18 09:35:27;;;;;;;7.78;2.53;;;0.80;99.90;;;;;;6230245;23;20016;-77
2024/01/18 09:37:52;;;;;;;6.03;2.40;;;0.70;99.90;;;;;;6233923;23;20042;-76
2024/01/18 09:40:18;;;;;;;4.85;2.10;;;0.70;99.90;;;;;;6225492;22;20075;-79
2024/01/18 09:42:46;;;;;;;6.43;2.13;;;0.70;99.90;;;;;;6247756;23;20023;-77
2024/01/18 09:45:14;;;;;;;5.68;1.95;;;0.80;99.90;;;;;;6247096;23;20016;-78
2024/01/18 09:47:42;;;;;;;4.18;1.73;;;0.80;99.90;;;;;;6247438;23;20012;-78
2024/01/18 09:50:09;;;;;;;4.28;1.58;;;0.90;99.90;;;;;;6220107;23;20047;-79
2024/01/18 09:52:35;;;;;;;5.43;1.42;;;1.00;99.90;;;;;;6219970;23;20046;-80
2024/01/18 09:55:00;;;;;;;6.18;1.30;;;1.10;99.90;;;;;;6247086;23;20105;-79
2024/01/18 09:57:35;;;;;;;4.00;1.00;;;1.30;99.90;;;;;;6220094;23;20147;-76
2024/01/18 10:00:03;;;;;;;2.65;0.93;;;1.40;99.90;;;;;;6220156;23;20020;-76
2024/01/18 10:02:29;;;;;;;3.35;0.80;;;1.70;99.90;;;;;;6246449;22;20410;-78
2024/01/18 10:05:00;;;;;;;3.63;0.75;;;2.00;99.90;;;;;;6219859;23;20012;-77
2024/01/18 10:07:29;;;;;;;3.17;1.08;;;2.20;99.90;;;;;;6194792;23;20409;-77
2024/01/18 10:09:54;;;;;;;2.40;1.05;;;2.30;99.90;;;;;;6246565;23;20445;-77
2024/01/18 10:12:20;;;;;;;2.90;0.80;;;2.70;99.90;;;;;;6246831;22;20083;-76
2024/01/18 10:14:46;;;;;;;5.43;2.47;;;3.10;99.90;;;;;;6246892;23;20087;-76
2024/01/18 10:17:22;;;;;;;5.65;1.40;;;3.50;99.90;;;;;;6247899;23;20016;-77
2024/01/18 10:19:54;;;;;;;5.53;1.20;;;3.60;99.90;;;;;;6219777;23;20347;-77
2024/01/18 10:22:21;;;;;;;5.18;1.33;;;3.60;99.90;;;;;;6246299;22;20449;-78
2024/01/18 10:24:46;;;;;;;4.70;1.13;;;3.60;99.90;;;;;;6246334;23;20019;-77
2024/01/18 10:27:12;;;;;;;5.28;1.10;;;3.60;99.90;;;;;;6246987;23;20005;-75
2024/01/18 10:29:38;;;;;;;2.58;1.20;;;3.60;99.90;;;;;;6247278;23;20036;-78
2024/01/18 10:32:06;;;;;;;4.82;2.00;;;3.60;99.90;;;;;;6219726;23;20024;-75
2024/01/18 10:34:39;;;;;;;4.75;2.08;;;3.40;99.90;;;;;;6219534;23;20445;-76
2024/01/18 10:37:05;;;;;;;4.55;1.40;;;3.50;99.90;;;;;;6219322;23;20020;-76
2024/01/18 10:39:41;;;;;;;6.60;0.88;;;3.40;99.90;;;;;;6219455;23;20018;-75
2024/01/18 10:42:10;;;;;;;3.22;0.90;;;3.30;99.90;;;;;;6246368;22;20012;-77
2024/01/18 10:44:45;;;;;;;2.38;0.55;;;3.20;99.90;;;;;;6219582;23;20016;-77
2024/01/18 10:47:12;;;;;;;4.90;1.40;;;3.40;99.90;;;;;;6219533;23;20521;-77
2024/01/18 10:49:40;;;;;;;2.97;0.70;;;3.50;99.90;;;;;;6248273;23;20015;-75
2024/01/18 10:52:07;;;;;;;3.53;0.90;;;3.50;99.90;;;;;;6253987;22;20016;-76
2024/01/18 10:54:34;;;;;;;3.50;0.98;;;3.40;99.90;;;;;;6252032;23;20446;-76
2024/01/18 10:57:00;;;;;;;5.63;0.90;;;3.30;99.90;;;;;;6220623;23;20091;-75
2024/01/18 10:59:29;;;;;;;6.05;1.02;;;3.30;99.90;;;;;;6219822;23;20048;-77
2024/01/18 11:01:59;;;;;;;2.65;0.85;;;3.40;99.90;;;;;;6256441;22;20075;-77
2024/01/18 11:04:30;;;;;;;3.58;0.90;;;3.40;99.90;;;;;;6249702;22;20012;-75
2024/01/18 11:06:58;;;;;;;4.43;1.08;;;3.40;99.90;;;;;;6277339;22;20010;-75
2024/01/18 11:09:29;;;;;;;3.65;0.93;;;3.30;99.90;;;;;;6276742;22;20082;-75
2024/01/18 11:11:56;;;;;;;3.15;1.02;;;3.00;99.90;;;;;;6275708;22;20394;-76
2024/01/18 11:14:22;;;;;;;6.35;1.20;;;2.70;99.90;;;;;;6275200;22;20012;-76
2024/01/18 11:16:48;;;;;;;5.35;1.17;;;2.50;99.90;;;;;;6249752;22;20015;-76
2024/01/18 11:19:37;;;;;;;3.67;1.60;;;2.40;99.90;;;;;;6249937;22;20015;-76
2024/01/18 11:22:03;;;;;;;8.55;2.08;;;2.30;99.90;;;;;;6276328;22;20015;-75
2024/01/18 11:24:29;;;;;;;11.77;2.92;;;2.30;99.90;;;;;;6275159;22;20050;-75
2024/01/18 11:26:57;;;;;;;7.65;2.05;;;2.40;99.90;;;;;;6276833;22;20012;-77
2024/01/18 11:29:25;;;;;;;6.35;1.33;;;2.70;99.90;;;;;;6274963;22;20018;-75
2024/01/18 11:31:51;;;;;;;5.22;1.73;;;3.00;99.90;;;;;;6249323;22;20448;-77
2024/01/18 11:34:29;;;;;;;4.13;0.98;;;3.50;99.90;;;;;;6277252;22;20015;-76
2024/01/18 11:37:10;;;;;;;4.93;1.33;;;3.80;99.90;;;;;;6276427;22;20074;-74
2024/01/18 11:39:48;;;;;;;1.67;0.50;;;4.00;99.90;;;;;;6276747;22;20065;-74
2024/01/18 11:42:21;;;;;;;3.20;1.10;;;4.00;99.90;;;;;;6275065;22;20016;-75
2024/01/18 11:45:04;;;;;;;4.68;0.90;;;3.80;99.90;;;;;;6275353;22;20015;-77
2024/01/18 11:47:34;;;;;;;2.97;1.10;;;3.70;99.90;;;;;;6274871;22;20008;-77
2024/01/18 11:50:05;;;;;;;6.18;0.73;;;3.50;99.90;;;;;;6276497;22;20027;-77
2024/01/18 11:52:32;;;;;;;4.28;0.70;;;3.40;99.90;;;;;;6276289;22;20019;-76
2024/01/18 11:54:59;;;;;;;3.38;0.75;;;3.40;99.90;;;;;;6276346;22;20080;-75
2024/01/18 11:57:25;;;;;;;3.35;0.80;;;3.30;99.90;;;;;;6274622;22;20039;-75
2024/01/18 11:59:52;;;;;;;16.35;1.05;;;3.20;99.90;;;;;;6249700;22;20069;-75
2024/01/18 12:02:18;;;;;;;2.78;0.70;;;3.10;99.90;;;;;;6274679;22;20027;-76
2024/01/18 12:04:43;;;;;;;2.38;0.68;;;2.90;99.90;;;;;;6276927;22;20345;-76
2024/01/18 12:07:10;;;;;;;3.00;0.50;;;2.70;99.90;;;;;;6274688;22;20485;-77
2024/01/18 12:09:37;;;;;;;2.72;0.50;;;2.60;99.90;;;;;;6276580;22;20031;-77
2024/01/18 12:12:04;;;;;;;4.00;1.10;;;2.70;99.90;;;;;;6276713;22;20011;-75
2024/01/18 12:14:30;;;;;;;2.83;0.43;;;2.90;99.90;;;;;;6276285;22;20019;-75
2024/01/18 12:16:56;;;;;;;4.32;1.10;;;3.10;99.90;;;;;;6277031;22;20014;-77
2024/01/18 12:19:40;;;;;;;6.47;0.60;;;3.20;99.90;;;;;;6275024;22;20310;-75
2024/01/18 12:22:17;;;;;;;3.83;0.70;;;3.50;99.90;;;;;;6276513;22;20012;-75
2024/01/18 12:24:44;;;;;;;4.70;0.82;;;3.60;99.90;;;;;;6277208;22;20130;-76
2024/01/18 12:27:10;;;;;;;2.85;0.45;;;3.70;99.90;;;;;;6275801;22;20012;-75
2024/01/18 12:29:38;;;;;;;2.25;0.50;;;3.80;99.90;;;;;;6278003;22;20012;-75
2024/01/18 12:32:04;;;;;;;4.57;0.70;;;4.00;99.90;;;;;;6278756;22;20082;-78
2024/01/18 12:34:32;;;;;;;2.65;0.43;;;4.20;99.90;;;;;;6278979;22;20527;-78
2024/01/18 12:36:58;;;;;;;4.40;1.15;;;4.30;99.90;;;;;;6276917;22;20012;-75
2024/01/18 12:39:24;;;;;;;3.75;0.57;;;4.30;99.90;;;;;;6277484;22;20019;-74
2024/01/18 12:41:52;;;;;;;3.47;0.50;;;4.40;99.90;;;;;;6276666;22;20019;-76
2024/01/18 12:44:18;;;;;;;5.93;0.52;;;4.40;99.90;;;;;;6278535;22;20026;-78
2024/01/18 12:46:45;;;;;;;2.38;0.50;;;4.30;99.90;;;;;;6278815;22;20007;-79
2024/01/18 12:49:11;;;;;;;3.72;0.50;;;4.30;99.90;;;;;;6278775;22;20074;-76
2024/01/18 12:51:37;;;;;;;2.20;0.63;;;4.40;99.90;;;;;;6276658;22;20007;-77
2024/01/18 12:54:04;;;;;;;8.23;1.02;;;4.50;99.90;;;;;;6278761;22;20083;-76
2024/01/18 12:56:30;;;;;;;1.95;0.40;;;4.50;99.90;;;;;;6277504;22;20014;-78
2024/01/18 12:58:56;;;;;;;3.80;0.45;;;4.60;99.90;;;;;;6278397;22;20039;-75
2024/01/18 13:01:29;;;;;;;4.65;0.40;;;4.70;99.90;;;;;;6276478;22;20011;-73
2024/01/18 13:04:11;;;;;;;3.25;0.55;;;4.70;99.90;;;;;;6276582;22;20008;-76
2024/01/18 13:06:37;;;;;;;3.10;0.77;;;4.80;99.90;;;;;;6278335;22;20026;-74
2024/01/18 13:09:04;;;;;;;2.42;0.63;;;4.80;99.90;;;;;;6277105;22;20008;-76
2024/01/18 13:11:31;;;;;;;3.55;0.93;;;4.90;99.90;;;;;;6278243;22;20514;-77
2024/01/18 13:13:59;;;;;;;3.45;0.73;;;4.90;99.90;;;;;;6279796;22;20007;-75
2024/01/18 13:16:27;;;;;;;1.63;0.60;;;5.10;99.90;;;;;;6278271;22;20010;-78
2024/01/18 13:18:59;;;;;;;2.38;0.75;;;5.10;99.90;;;;;;6276302;22;20011;-75
2024/01/18 13:21:25;;;;;;;5.32;1.30;;;5.10;99.90;;;;;;6278124;22;20083;-75
2024/01/18 13:23:51;;;;;;;4.57;0.80;;;5.10;99.90;;;;;;6276228;22;20039;-75
2024/01/18 13:26:16;;;;;;;2.75;0.73;;;5.20;99.90;;;;;;6276222;22;20018;-76
2024/01/18 13:28:42;;;;;;;8.18;1.15;;;5.30;99.90;;;;;;6277998;22;20004;-78
2024/01/18 13:31:09;;;;;;;6.20;0.93;;;5.30;99.90;;;;;;6277570;22;20008;-76
2024/01/18 13:33:35;;;;;;;4.70;0.90;;;5.30;99.90;;;;;;6278046;22;20012;-75
2024/01/18 13:36:01;;;;;;;4.18;1.00;;;5.40;99.90;;;;;;6275976;22;20099;-76
2024/01/18 13:38:26;;;;;;;13.73;2.67;;;5.60;99.90;;;;;;6250224;22;20015;-79
2024/01/18 13:40:54;;;;;;;11.25;2.83;;;5.90;99.90;;;;;;6275820;22;20011;-76
2024/01/18 13:43:19;;;;;;;24.60;2.22;;;6.10;99.90;;;;;;6275762;22;20012;-76
2024/01/18 13:45:45;;;;;;;2.72;0.88;;;6.10;99.90;;;;;;6277893;22;20018;-77
2024/01/18 13:48:10;;;;;;;2.63;0.80;;;6.00;99.90;;;;;;6277569;22;20014;-75
2024/01/18 13:50:36;;;;;;;19.70;3.03;;;6.00;99.90;;;;;;6275853;22;20066;-76
2024/01/18 13:53:03;;;;;;;3.42;0.80;;;6.20;99.90;;;;;;6275852;22;20058;-76
2024/01/18 13:55:30;;;;;;;4.00;0.98;;;6.40;99.90;;;;;;6277849;22;20014;-76
2024/01/18 13:57:56;;;;;;;4.40;0.90;;;6.50;99.90;;;;;;6277417;22;20035;-76
2024/01/18 14:00:22;;;;;;;2.83;0.80;;;6.30;99.90;;;;;;6275766;22;20008;-75
2024/01/18 14:02:48;;;;;;;5.22;0.82;;;6.00;99.90;;;;;;6220880;23;20023;-77
2024/01/18 14:05:13;;;;;;;2.83;0.55;;;5.70;99.90;;;;;;6219828;23;20069;-75
2024/01/18 14:07:39;;;;;;;3.80;0.80;;;5.60;99.90;;;;;;6246995;23;20426;-75
2024/01/18 14:10:05;;;;;;;2.47;0.65;;;5.40;99.90;;;;;;6246575;23;20009;-77
2024/01/18 14:12:31;;;;;;;3.03;0.50;;;5.40;99.90;;;;;;6246525;22;20047;-78
2024/01/18 14:14:57;;;;;;;2.53;0.50;;;5.40;99.90;;;;;;6219786;23;20081;-76
2024/01/18 14:17:23;;;;;;;3.72;0.65;;;5.70;99.90;;;;;;6219458;23;20491;-78
2024/01/18 14:19:49;;;;;;;6.32;0.80;;;5.80;99.90;;;;;;6246306;23;20470;-77
2024/01/18 14:22:14;;;;;;;3.83;0.60;;;6.00;99.90;;;;;;6246791;22;20020;-76
2024/01/18 14:24:41;;;;;;;6.03;1.00;;;6.10;99.90;;;;;;6219726;23;20074;-76
2024/01/18 14:27:07;;;;;;;6.38;1.10;;;6.30;99.90;;;;;;6247374;23;20296;-79
2024/01/18 14:29:36;;;;;;;4.38;1.00;;;6.40;99.90;;;;;;6219694;23;20012;-77
2024/01/18 14:32:01;;;;;;;7.55;0.85;;;6.60;99.90;;;;;;6246688;22;20012;-78
2024/01/18 14:34:28;;;;;;;4.35;0.82;;;6.70;99.90;;;;;;6247283;23;20051;-79
2024/01/18 14:36:54;;;;;;;18.83;1.63;;;6.80;99.90;;;;;;6247187;23;20020;-78
2024/01/18 14:39:20;;;;;;;9.32;1.77;;;6.70;99.90;;;;;;6246673;23;20027;-78
2024/01/18 14:41:45;;;;;;;8.70;0.90;;;6.60;99.90;;;;;;6246897;22;20012;-79
2024/01/18 14:44:11;;;;;;;4.28;1.10;;;6.70;99.90;;;;;;6219916;23;20008;-76
2024/01/18 14:46:37;;;;;;;12.77;1.42;;;6.70;99.90;;;;;;6247012;23;20053;-79
2024/01/18 14:49:04;;;;;;;12.30;1.90;;;6.40;99.90;;;;;;6246640;23;20013;-77
2024/01/18 14:51:30;;;;;;;15.10;2.35;;;6.00;99.90;;;;;;6219395;23;20034;-76
2024/01/18 14:53:55;;;;;;;10.40;1.45;;;5.70;99.90;;;;;;6219675;23;20083;-79
2024/01/18 14:56:21;;;;;;;12.25;2.15;;;5.30;99.90;;;;;;6246881;23;20015;-78
2024/01/18 14:58:48;;;;;;;18.85;2.40;;;5.00;99.90;;;;;;6220128;23;20078;-79
2024/01/18 15:01:13;;;;;;;38.67;4.32;;;4.60;99.90;;;;;;6246153;22;20012;-78
2024/01/18 15:03:43;;;;;;;17.90;3.17;;;4.40;99.90;;;;;;6219804;23;20071;-77
2024/01/18 15:06:14;;;;;;;15.98;2.58;;;4.30;99.90;;;;;;6246644;23;20110;-78
2024/01/18 15:08:43;;;;;;;17.58;2.58;;;4.10;99.90;;;;;;6246407;23;20309;-80
2024/01/18 15:11:09;;;;;;;17.17;1.90;;;4.00;99.90;;;;;;6246340;22;20329;-77
2024/01/18 15:13:34;;;;;;;25.70;2.38;;;3.90;99.90;;;;;;6194474;23;20345;-78
2024/01/18 15:16:00;;;;;;;16.55;1.92;;;3.80;99.90;;;;;;6246384;23;20008;-79
2024/01/18 15:18:26;;;;;;;6.65;1.73;;;3.60;99.90;;;;;;6246629;23;20015;-77
2024/01/18 15:20:51;;;;;;;14.60;2.35;;;3.50;99.90;;;;;;6219391;23;20098;-77
2024/01/18 15:23:17;;;;;;;18.83;3.53;;;3.40;99.90;;;;;;6219740;23;20019;-79
2024/01/18 15:25:42;;;;;;;18.70;3.00;;;3.40;99.90;;;;;;6219500;23;20015;-79
2024/01/18 15:28:08;;;;;;;18.52;3.42;;;3.30;99.90;;;;;;6245955;23;20338;-76
2024/01/18 15:30:34;;;;;;;7.85;2.15;;;3.20;99.90;;;;;;6219455;22;20016;-78
2024/01/18 15:32:59;;;;;;;20.42;4.30;;;3.20;99.90;;;;;;6219306;23;20016;-79
2024/01/18 15:35:27;;;;;;;12.73;3.50;;;3.10;99.90;;;;;;6219409;23;20492;-78
2024/01/18 15:37:53;;;;;;;10.48;3.45;;;3.10;99.90;;;;;;6219383;23;20044;-77
2024/01/18 15:40:19;;;;;;;16.15;3.78;;;3.00;99.90;;;;;;6219298;22;20016;-77
2024/01/18 15:42:44;;;;;;;11.77;3.95;;;3.00;99.90;;;;;;6245945;23;20028;-76
2024/01/18 15:45:13;;;;;;;11.52;3.42;;;2.90;99.90;;;;;;6246160;23;20035;-77
2024/01/18 15:47:42;;;;;;;6.88;2.97;;;2.80;99.90;;;;;;6246009;23;20012;-75
2024/01/18 15:50:09;;;;;;;8.35;2.90;;;2.70;99.90;;;;;;6219375;23;20012;-78
2024/01/18 15:52:35;;;;;;;9.35;2.67;;;2.70;99.90;;;;;;6219299;23;20020;-77
2024/01/18 15:55:01;;;;;;;9.88;2.40;;;2.60;99.90;;;;;;6219326;23;20434;-76
2024/01/18 15:57:28;;;;;;;7.80;2.67;;;2.60;99.90;;;;;;6246094;23;20016;-78
2024/01/18 15:59:56;;;;;;;11.32;2.42;;;2.40;99.90;;;;;;6246496;23;20019;-77
2024/01/18 16:02:22;;;;;;;8.18;2.35;;;2.40;99.90;;;;;;6269056;22;20016;-79
2024/01/18 16:04:50;;;;;;;12.02;3.33;;;2.30;99.90;;;;;;6277555;22;20015;-77
2024/01/18 16:07:16;;;;;;;11.82;2.60;;;2.30;99.90;;;;;;6279612;22;20087;-77
2024/01/18 16:09:42;;;;;;;10.73;3.60;;;2.20;99.90;;;;;;6279304;22;20012;-75
2024/01/18 16:12:09;;;;;;;11.43;3.15;;;2.10;99.90;;;;;;6291167;22;20329;-75
2024/01/18 16:14:42;;;;;;;19.27;4.65;;;2.10;99.90;;;;;;6290962;22;20012;-76
2024/01/18 16:17:09;;;;;;;40.10;12.13;;;2.10;99.90;;;;;;6253626;22;20307;-77
2024/01/18 16:19:34;;;;;;;53.03;15.20;;;2.00;99.90;;;;;;6280859;22;20022;-77
2024/01/18 16:22:00;;;;;;;26.83;10.68;;;1.90;99.90;;;;;;6277868;22;20453;-79
2024/01/18 16:24:26;;;;;;;23.88;10.10;;;1.90;99.90;;;;;;6278008;22;20012;-78
2024/01/18 16:26:51;;;;;;;17.13;5.47;;;1.80;99.90;;;;;;6279999;22;20492;-79
2024/01/18 16:29:17;;;;;;;21.88;9.88;;;1.80;99.90;;;;;;6279049;22;20065;-77
2024/01/18 16:31:43;;;;;;;24.27;9.77;;;1.70;99.90;;;;;;6277463;22;20069;-76
2024/01/18 16:34:08;;;;;;;20.92;9.90;;;1.70;99.90;;;;;;6279977;22;20008;-78
2024/01/18 16:36:34;;;;;;;18.58;9.25;;;1.60;99.90;;;;;;6277058;22;20019;-75
2024/01/18 16:39:00;;;;;;;15.82;8.93;;;1.60;99.90;;;;;;6278846;22;20015;-76
2024/01/18 16:41:26;;;;;;;18.98;9.70;;;1.50;99.90;;;;;;6282678;22;20026;-75
2024/01/18 16:43:52;;;;;;;22.30;8.77;;;1.50;99.90;;;;;;6278453;22;20012;-75
2024/01/18 16:46:18;;;;;;;18.80;8.20;;;1.50;99.90;;;;;;6276750;22;20015;-77
2024/01/18 16:48:44;;;;;;;19.98;7.50;;;1.40;99.90;;;;;;6276624;22;20016;-76